createdAt,value
2023-05-04T00:01:48.879Z,25.29
2023-05-04T00:04:37.587Z,25.27
2023-05-04T00:07:27.553Z,25.28
2023-05-04T00:10:16.288Z,25.28
2023-05-04T00:13:05.552Z,25.29
2023-05-04T00:15:54.249Z,25.29
2023-05-04T00:18:42.953Z,25.24
2023-05-04T00:21:32.868Z,25.21
2023-05-04T00:24:22.863Z,25.19
2023-05-04T00:27:12.966Z,25.21
2023-05-04T00:30:01.641Z,25.21
2023-05-04T00:32:50.439Z,25.17
2023-05-04T00:35:39.035Z,25.17
2023-05-04T00:38:27.756Z,25.17
2023-05-04T00:41:18.134Z,25.15
2023-05-04T00:44:07.879Z,25.13
2023-05-04T00:46:56.984Z,25.14
2023-05-04T00:49:46.152Z,25.19
2023-05-04T00:52:36.223Z,25.21
2023-05-04T00:55:27.303Z,25.17
2023-05-04T00:58:18.250Z,25.15
2023-05-04T01:01:06.981Z,25.11
2023-05-04T01:03:57.134Z,25.06
2023-05-04T01:06:50.276Z,25.13
2023-05-04T01:09:44.636Z,25.09
2023-05-04T01:12:39.976Z,25.10
2023-05-04T01:15:31.806Z,25.13
2023-05-04T01:18:20.503Z,25.11
2023-05-04T01:21:09.967Z,25.09
2023-05-04T01:24:00.579Z,25.11
2023-05-04T01:26:55.428Z,25.09
2023-05-04T01:29:52.375Z,25.06
2023-05-04T01:32:43.144Z,25.02
2023-05-04T01:35:33.323Z,25.04
2023-05-04T01:38:22.129Z,25.04
2023-05-04T01:41:12.084Z,25.05
2023-05-04T01:44:00.966Z,25.05
2023-05-04T01:46:52.100Z,25.03
2023-05-04T01:49:40.771Z,25.04
2023-05-04T01:52:30.736Z,25.03
2023-05-04T01:55:19.449Z,25.03
2023-05-04T01:58:09.523Z,25.01
2023-05-04T02:01:00.640Z,25.00
2023-05-04T02:03:49.636Z,25.01
2023-05-04T02:06:38.301Z,25.02
2023-05-04T02:09:27.004Z,25.01
2023-05-04T02:12:15.578Z,25.04
2023-05-04T02:15:06.318Z,24.98
2023-05-04T02:17:58.526Z,25.02
2023-05-04T02:20:47.154Z,25.01
2023-05-04T02:23:35.744Z,25.01
2023-05-04T02:26:24.362Z,25.01
2023-05-04T02:29:12.905Z,25.00
2023-05-04T02:32:03.266Z,24.98
2023-05-04T02:34:52.115Z,25.00
2023-05-04T02:37:41.083Z,24.99
2023-05-04T02:40:29.692Z,24.94
2023-05-04T02:43:18.350Z,24.91
2023-05-04T02:46:07.027Z,24.89
2023-05-04T02:48:57.521Z,24.90
2023-05-04T02:51:47.368Z,24.89
2023-05-04T02:54:35.958Z,24.89
2023-05-04T02:57:24.563Z,24.90
2023-05-04T03:00:14.013Z,24.89
2023-05-04T03:03:02.776Z,24.89
2023-05-04T03:05:52.909Z,24.88
2023-05-04T03:08:41.812Z,24.88
2023-05-04T03:11:30.388Z,24.88
2023-05-04T03:14:18.980Z,24.87
2023-05-04T03:17:07.923Z,24.87
2023-05-04T03:19:56.762Z,24.85
2023-05-04T03:22:46.720Z,24.83
2023-05-04T03:25:35.274Z,24.85
2023-05-04T03:28:23.830Z,24.87
2023-05-04T03:31:12.497Z,24.85
2023-05-04T03:34:01.184Z,24.85
2023-05-04T03:36:49.934Z,24.86
2023-05-04T03:39:39.992Z,24.87
2023-05-04T03:42:28.639Z,24.82
2023-05-04T03:45:17.368Z,24.82
2023-05-04T03:48:06.015Z,24.88
2023-05-04T03:50:54.901Z,24.86
2023-05-04T03:53:44.855Z,24.83
2023-05-04T03:56:35.269Z,24.85
2023-05-04T03:59:23.823Z,24.86
2023-05-04T04:02:12.538Z,24.86
2023-05-04T04:05:01.080Z,24.89
2023-05-04T04:07:50.845Z,24.86
2023-05-04T04:10:39.389Z,24.88
2023-05-04T04:13:29.368Z,24.86
2023-05-04T04:16:18.037Z,24.88
2023-05-04T04:19:07.539Z,24.96
2023-05-04T04:21:58.149Z,24.96
2023-05-04T04:24:46.814Z,25.04
2023-05-04T04:27:36.444Z,24.98
2023-05-04T04:30:26.558Z,24.90
2023-05-04T04:33:15.128Z,24.95
2023-05-04T04:36:06.730Z,24.95
2023-05-04T04:38:58.402Z,24.91
2023-05-04T04:41:47.080Z,24.86
2023-05-04T04:44:39.715Z,24.87
2023-05-04T04:47:32.858Z,24.82
2023-05-04T04:50:22.674Z,24.76
2023-05-04T04:53:12.506Z,24.78
2023-05-04T04:56:01.129Z,24.75
2023-05-04T04:58:50.854Z,24.74
2023-05-04T05:01:39.476Z,24.80
2023-05-04T05:04:29.741Z,24.75
2023-05-04T05:07:18.356Z,24.71
2023-05-04T05:10:08.558Z,24.76
2023-05-04T05:12:57.413Z,24.86
2023-05-04T05:15:46.137Z,24.85
2023-05-04T05:18:35.349Z,24.75
2023-05-04T05:21:27.648Z,24.83
2023-05-04T05:24:17.171Z,24.77
2023-05-04T05:27:05.783Z,24.87
2023-05-04T05:29:54.444Z,24.91
2023-05-04T05:32:43.969Z,24.89
2023-05-04T05:35:33.934Z,24.86
2023-05-04T05:38:23.948Z,24.87
2023-05-04T05:41:12.659Z,24.88
2023-05-04T05:44:02.813Z,24.88
2023-05-04T05:46:51.997Z,24.93
2023-05-04T05:49:41.518Z,24.97
2023-05-04T05:52:30.760Z,24.92
2023-05-04T05:55:20.756Z,24.95
2023-05-04T05:58:09.640Z,24.97
2023-05-04T06:01:04.955Z,24.94
2023-05-04T06:03:53.800Z,24.89
2023-05-04T06:06:45.134Z,24.94
2023-05-04T06:09:35.040Z,24.98
2023-05-04T06:12:27.395Z,24.95
2023-05-04T06:15:16.646Z,24.96
2023-05-04T06:18:05.482Z,24.94
2023-05-04T06:21:00.305Z,24.98
2023-05-04T06:23:48.981Z,24.93
2023-05-04T06:26:37.613Z,24.94
2023-05-04T06:29:27.738Z,25.17
2023-05-04T06:32:16.744Z,25.03
2023-05-04T06:35:05.816Z,24.98
2023-05-04T06:37:54.412Z,24.95
2023-05-04T06:40:43.080Z,24.89
2023-05-04T06:43:33.786Z,24.88
2023-05-04T06:46:23.856Z,24.88
2023-05-04T06:49:12.443Z,24.89
2023-05-04T06:52:01.312Z,24.85
2023-05-04T06:54:49.926Z,24.87
2023-05-04T06:57:38.786Z,24.90
2023-05-04T07:00:28.231Z,24.91
2023-05-04T07:03:18.258Z,24.90
2023-05-04T07:06:07.075Z,24.93
2023-05-04T07:08:55.713Z,24.96
2023-05-04T07:11:45.554Z,24.95
2023-05-04T07:14:34.249Z,24.97
2023-05-04T07:17:25.248Z,24.99
2023-05-04T07:20:17.177Z,25.02
2023-05-04T07:23:05.973Z,25.01
2023-05-04T07:25:54.607Z,25.04
2023-05-04T07:28:44.298Z,25.07
2023-05-04T07:31:33.616Z,25.11
2023-05-04T07:34:27.673Z,25.09
2023-05-04T07:37:28.094Z,25.14
2023-05-04T07:40:16.714Z,25.19
2023-05-04T07:43:05.719Z,25.19
2023-05-04T07:45:55.235Z,25.22
2023-05-04T07:48:43.923Z,25.21
2023-05-04T07:51:32.526Z,25.18
2023-05-04T07:54:23.311Z,25.19
2023-05-04T07:57:12.073Z,25.16
2023-05-04T08:00:00.700Z,25.19
2023-05-04T08:02:49.741Z,25.17
2023-05-04T08:05:38.560Z,25.24
2023-05-04T08:08:27.718Z,25.30
2023-05-04T08:11:20.583Z,25.41
2023-05-04T08:14:10.627Z,25.37
2023-05-04T08:16:59.221Z,25.42
2023-05-04T08:19:47.871Z,25.41
2023-05-04T08:22:36.785Z,25.40
2023-05-04T08:25:25.587Z,25.44
2023-05-04T08:28:15.641Z,25.50
2023-05-04T08:31:04.352Z,25.62
2023-05-04T08:33:53.131Z,25.54
2023-05-04T08:36:41.695Z,25.56
2023-05-04T08:39:30.555Z,25.60
2023-05-04T08:42:28.919Z,25.53
2023-05-04T08:45:19.394Z,25.52
2023-05-04T08:48:08.419Z,25.62
2023-05-04T08:50:59.097Z,25.54
2023-05-04T08:53:48.570Z,25.49
2023-05-04T08:56:38.187Z,25.50
2023-05-04T08:59:30.345Z,25.47
2023-05-04T09:02:21.487Z,25.49
2023-05-04T09:05:12.184Z,25.45
2023-05-04T09:08:00.891Z,25.45
2023-05-04T09:10:49.793Z,25.46
2023-05-04T09:13:38.736Z,25.51
2023-05-04T09:16:36.089Z,25.51
2023-05-04T09:19:33.494Z,25.54
2023-05-04T09:22:22.309Z,25.53
2023-05-04T09:25:12.636Z,25.61
2023-05-04T09:28:01.683Z,25.50
2023-05-04T09:30:51.660Z,25.51
2023-05-04T09:33:40.298Z,25.70
2023-05-04T09:36:30.327Z,25.58
2023-05-04T09:39:19.201Z,25.55
2023-05-04T09:42:18.826Z,25.56
2023-05-04T09:45:09.782Z,25.63
2023-05-04T09:47:58.847Z,25.65
2023-05-04T09:50:53.622Z,25.58
2023-05-04T09:53:44.849Z,25.64
2023-05-04T09:56:39.883Z,25.62
2023-05-04T09:59:32.340Z,25.60
2023-05-04T10:02:23.370Z,25.53
2023-05-04T10:05:18.410Z,25.54
2023-05-04T10:08:07.673Z,25.58
2023-05-04T10:10:58.980Z,25.58
2023-05-04T10:13:47.823Z,25.59
2023-05-04T10:16:47.046Z,25.64
2023-05-04T10:19:54.377Z,25.65
2023-05-04T10:22:57.634Z,25.68
2023-05-04T10:26:02.525Z,25.67
2023-05-04T10:29:05.023Z,25.67
2023-05-04T10:31:54.352Z,25.61
2023-05-04T10:34:43.194Z,25.64
2023-05-04T10:37:31.870Z,25.66
2023-05-04T10:40:20.485Z,25.69
2023-05-04T10:43:13.289Z,25.68
2023-05-04T10:46:03.293Z,25.69
2023-05-04T10:48:54.291Z,25.73
2023-05-04T10:51:49.341Z,25.69
2023-05-04T10:54:41.712Z,25.67
2023-05-04T10:57:31.167Z,25.69
2023-05-04T11:00:20.597Z,25.71
2023-05-04T11:03:12.115Z,25.74
2023-05-04T11:06:00.824Z,25.74
2023-05-04T11:08:50.374Z,25.75
2023-05-04T11:11:39.150Z,25.75
2023-05-04T11:14:29.804Z,25.77
2023-05-04T11:20:12.279Z,25.80
2023-05-04T11:23:01.133Z,25.79
2023-05-04T11:25:50.869Z,25.76
2023-05-04T11:28:40.212Z,25.77
2023-05-04T11:31:28.854Z,25.78
2023-05-04T11:34:22.685Z,25.80
2023-05-04T11:37:14.177Z,25.82
2023-05-04T11:40:02.878Z,25.81
2023-05-04T11:42:55.422Z,25.78
2023-05-04T11:45:49.312Z,25.77
2023-05-04T11:48:38.088Z,25.81
2023-05-04T11:51:27.699Z,25.81
2023-05-04T11:54:23.818Z,25.86
2023-05-04T11:57:23.453Z,25.83
2023-05-04T12:00:14.148Z,25.81
2023-05-04T12:03:03.185Z,25.77
2023-05-04T12:05:53.918Z,25.81
2023-05-04T12:08:45.414Z,25.81
2023-05-04T12:11:38.624Z,25.80
2023-05-04T12:14:28.397Z,25.84
2023-05-04T12:17:18.094Z,25.84
2023-05-04T12:20:07.964Z,25.86
2023-05-04T12:22:58.404Z,25.83
2023-05-04T12:25:57.442Z,25.92
2023-05-04T12:28:47.923Z,25.91
2023-05-04T12:31:36.678Z,25.87
2023-05-04T12:34:25.337Z,25.92
2023-05-04T12:37:13.971Z,25.92
2023-05-04T12:40:04.400Z,25.87
2023-05-04T12:42:55.951Z,25.94
2023-05-04T12:45:46.032Z,25.88
2023-05-04T12:48:34.733Z,25.91
2023-05-04T12:51:23.397Z,25.91
2023-05-04T12:54:13.393Z,25.88
2023-05-04T12:57:02.409Z,25.96
2023-05-04T12:59:50.986Z,25.95
2023-05-04T13:02:41.070Z,25.98
2023-05-04T13:05:29.798Z,25.97
2023-05-04T13:08:19.845Z,25.98
2023-05-04T13:11:08.741Z,25.98
2023-05-04T13:13:57.935Z,26.00
2023-05-04T13:16:46.680Z,25.95
2023-05-04T13:19:36.784Z,26.04
2023-05-04T13:22:25.460Z,26.06
2023-05-04T13:25:14.493Z,26.07
2023-05-04T13:28:03.433Z,26.11
2023-05-04T13:30:53.954Z,26.10
2023-05-04T13:33:42.868Z,26.19
2023-05-04T13:36:33.008Z,26.18
2023-05-04T13:39:23.818Z,26.28
2023-05-04T13:42:13.279Z,26.23
2023-05-04T13:45:02.515Z,26.19
2023-05-04T13:47:53.012Z,26.26
2023-05-04T13:50:42.103Z,26.19
2023-05-04T13:53:34.323Z,26.22
2023-05-04T13:56:23.301Z,26.19
2023-05-04T13:59:12.071Z,26.18
2023-05-04T14:02:03.956Z,26.14
2023-05-04T14:04:53.146Z,26.19
2023-05-04T14:07:41.832Z,26.24
2023-05-04T14:10:31.884Z,26.28
2023-05-04T14:13:20.578Z,26.39
2023-05-04T14:16:09.470Z,26.31
2023-05-04T14:18:58.132Z,26.30
2023-05-04T14:21:46.865Z,26.35
2023-05-04T14:24:35.826Z,26.23
2023-05-04T14:27:27.300Z,26.26
2023-05-04T14:30:16.722Z,26.16
2023-05-04T14:33:05.758Z,26.18
2023-05-04T14:35:54.388Z,26.17
2023-05-04T14:38:43.398Z,26.22
2023-05-04T14:41:33.676Z,26.17
2023-05-04T14:44:25.928Z,26.17
2023-05-04T14:47:14.527Z,26.09
2023-05-04T14:50:03.470Z,26.06
2023-05-04T14:52:52.441Z,26.11
2023-05-04T14:55:41.968Z,26.22
2023-05-04T14:58:30.792Z,26.26
2023-05-04T15:01:20.819Z,26.24
2023-05-04T15:04:09.515Z,26.18
2023-05-04T15:06:58.240Z,26.19
2023-05-04T15:09:46.885Z,26.17
2023-05-04T15:12:37.570Z,26.31
2023-05-04T15:15:26.497Z,26.27
2023-05-04T15:18:16.475Z,26.18
2023-05-04T15:21:05.150Z,26.17
2023-05-04T15:23:53.797Z,26.15
2023-05-04T15:26:42.427Z,26.20
2023-05-04T15:29:31.193Z,26.18
2023-05-04T15:32:19.911Z,26.18
2023-05-04T15:35:10.433Z,26.19
2023-05-04T15:37:59.050Z,26.19
2023-05-04T15:40:47.659Z,26.17
2023-05-04T15:43:36.346Z,26.24
2023-05-04T15:46:25.259Z,26.27
2023-05-04T15:49:14.018Z,26.30
2023-05-04T15:52:09.921Z,26.31
2023-05-04T15:55:09.240Z,26.19
2023-05-04T15:58:05.994Z,26.17
2023-05-04T16:00:54.687Z,26.22
2023-05-04T16:03:44.562Z,26.22
2023-05-04T16:06:33.187Z,26.07
2023-05-04T16:09:23.274Z,26.08
2023-05-04T16:12:12.107Z,26.15
2023-05-04T16:15:00.731Z,26.05
2023-05-04T16:17:49.445Z,26.13
2023-05-04T16:20:38.145Z,26.06
2023-05-04T16:23:29.052Z,25.99
2023-05-04T16:26:19.064Z,25.93
2023-05-04T16:29:08.005Z,25.97
2023-05-04T16:31:56.964Z,25.94
2023-05-04T16:34:45.643Z,25.96
2023-05-04T16:37:37.146Z,26.01
2023-05-04T16:40:26.464Z,26.06
2023-05-04T16:43:16.485Z,25.98
2023-05-04T16:46:07.599Z,25.98
2023-05-04T16:48:56.300Z,26.09
2023-05-04T16:51:45.027Z,26.02
2023-05-04T16:54:34.189Z,25.98
2023-05-04T16:57:22.843Z,25.94
2023-05-04T17:00:14.621Z,25.92
2023-05-04T17:03:03.529Z,25.93
2023-05-04T17:05:55.622Z,25.97
2023-05-04T17:08:45.608Z,25.93
2023-05-04T17:11:34.474Z,25.87
2023-05-04T17:14:23.426Z,26.03
2023-05-04T17:17:13.355Z,26.09
2023-05-04T17:20:02.435Z,26.18
2023-05-04T17:22:53.694Z,26.27
2023-05-04T17:25:42.601Z,26.27
2023-05-04T17:28:31.605Z,26.23
2023-05-04T17:31:20.346Z,26.28
2023-05-04T17:34:11.350Z,26.15
2023-05-04T17:37:00.059Z,26.10
2023-05-04T17:39:48.665Z,26.04
2023-05-04T17:42:37.232Z,26.09
2023-05-04T17:45:26.810Z,26.23
2023-05-04T17:48:17.414Z,26.33
2023-05-04T17:51:10.981Z,26.33
2023-05-04T17:53:59.703Z,26.32
2023-05-04T17:56:48.297Z,26.16
2023-05-04T17:59:41.172Z,26.13
2023-05-04T18:02:31.094Z,26.03
2023-05-04T18:05:20.047Z,26.01
2023-05-04T18:08:10.459Z,25.99
2023-05-04T18:10:59.100Z,25.95
2023-05-04T18:13:50.887Z,26.08
2023-05-04T18:16:39.970Z,26.15
2023-05-04T18:19:28.631Z,26.10
2023-05-04T18:22:19.220Z,26.17
2023-05-04T18:25:10.676Z,26.21
2023-05-04T18:28:02.467Z,26.22
2023-05-04T18:30:51.540Z,26.15
2023-05-04T18:33:40.200Z,26.16
2023-05-04T18:36:28.962Z,26.09
2023-05-04T18:39:17.627Z,26.14
2023-05-04T18:42:07.676Z,26.09
2023-05-04T18:44:56.673Z,26.27
2023-05-04T18:47:45.391Z,26.23
2023-05-04T18:50:34.023Z,26.22
2023-05-04T18:53:22.794Z,26.16
2023-05-04T18:56:12.179Z,26.00
2023-05-04T18:59:02.223Z,25.91
2023-05-04T19:02:03.174Z,26.02
2023-05-04T19:04:52.170Z,26.05
2023-05-04T19:07:41.034Z,26.10
2023-05-04T19:10:30.623Z,26.05
2023-05-04T19:13:20.763Z,26.03
2023-05-04T19:16:14.556Z,26.03
2023-05-04T19:19:04.109Z,25.95
2023-05-04T19:21:53.292Z,25.92
2023-05-04T19:24:41.902Z,25.99
2023-05-04T19:27:30.736Z,26.05
2023-05-04T19:30:19.526Z,26.02
2023-05-04T19:33:09.907Z,26.08
2023-05-04T19:35:59.069Z,26.10
2023-05-04T19:38:48.076Z,26.12
2023-05-04T19:41:37.360Z,26.13
2023-05-04T19:44:25.952Z,26.05
2023-05-04T19:47:14.527Z,26.09
2023-05-04T19:50:04.785Z,26.06
2023-05-04T19:52:53.595Z,26.01
2023-05-04T19:55:42.333Z,26.03
2023-05-04T19:58:32.250Z,25.96
2023-05-04T20:01:21.144Z,25.97
2023-05-04T20:04:10.300Z,26.00
2023-05-04T20:07:02.492Z,25.94
2023-05-04T20:09:51.361Z,25.98
2023-05-04T20:12:40.869Z,26.01
2023-05-04T20:15:29.683Z,26.04
2023-05-04T20:18:20.057Z,26.04
2023-05-04T20:21:08.864Z,26.04
2023-05-04T20:23:59.139Z,26.01
2023-05-04T20:26:47.886Z,26.02
2023-05-04T20:29:36.518Z,25.92
2023-05-04T20:32:25.339Z,25.81
2023-05-04T20:35:14.350Z,25.88
2023-05-04T20:38:10.557Z,25.86
2023-05-04T20:41:07.278Z,25.82
2023-05-04T20:43:55.991Z,25.75
2023-05-04T20:46:46.041Z,25.64
2023-05-04T20:49:34.746Z,25.62
2023-05-04T20:52:23.395Z,25.57
2023-05-04T20:55:13.759Z,25.53
2023-05-04T20:58:03.849Z,25.51
2023-05-04T21:00:52.755Z,25.50
2023-05-04T21:03:41.588Z,25.54
2023-05-04T21:06:32.273Z,25.50
2023-05-04T21:09:21.484Z,25.49
2023-05-04T21:12:10.146Z,25.49
2023-05-04T21:15:00.293Z,25.48
2023-05-04T21:17:49.901Z,25.48
2023-05-04T21:20:38.694Z,25.45
2023-05-04T21:23:27.284Z,25.47
2023-05-04T21:26:15.913Z,25.44
2023-05-04T21:29:04.529Z,25.46
2023-05-04T21:31:54.565Z,25.46
2023-05-04T21:34:43.181Z,25.42
2023-05-04T21:37:31.819Z,25.46
2023-05-04T21:40:20.745Z,25.44
2023-05-04T21:43:09.324Z,25.43
2023-05-04T21:45:58.909Z,25.41
2023-05-04T21:48:48.914Z,25.41
2023-05-04T21:51:37.735Z,25.40
2023-05-04T21:54:27.915Z,25.38
2023-05-04T21:57:16.634Z,25.39
2023-05-04T22:00:12.914Z,25.40
2023-05-04T22:03:01.838Z,25.36
2023-05-04T22:05:57.725Z,25.37
2023-05-04T22:08:46.648Z,25.35
2023-05-04T22:11:35.340Z,25.33
2023-05-04T22:14:24.232Z,25.35
2023-05-04T22:17:13.107Z,25.33
2023-05-04T22:20:01.816Z,25.33
2023-05-04T22:22:52.099Z,25.32
2023-05-04T22:25:41.096Z,25.31
2023-05-04T22:28:32.759Z,25.30
2023-05-04T22:31:21.478Z,25.28
2023-05-04T22:34:10.338Z,25.27
2023-05-04T22:36:58.991Z,25.32
2023-05-04T22:39:49.013Z,25.26
2023-05-04T22:42:37.869Z,25.26
2023-05-04T22:45:26.622Z,25.26
2023-05-04T22:48:16.080Z,25.28
2023-05-04T22:51:04.843Z,25.28
2023-05-04T22:53:53.358Z,25.31
2023-05-04T22:56:43.324Z,25.32
2023-05-04T22:59:32.487Z,25.32
2023-05-04T23:02:22.532Z,25.29
2023-05-04T23:05:13.067Z,25.28
2023-05-04T23:08:01.731Z,25.28
2023-05-04T23:10:51.485Z,25.23
2023-05-04T23:13:41.692Z,25.26
2023-05-04T23:16:30.419Z,25.27
2023-05-04T23:19:19.205Z,25.27
2023-05-04T23:22:07.752Z,25.27
2023-05-04T23:24:56.382Z,25.26
2023-05-04T23:27:46.272Z,25.26
2023-05-04T23:30:36.287Z,25.26
2023-05-04T23:33:25.183Z,25.26
2023-05-04T23:36:13.755Z,25.27
2023-05-04T23:39:02.517Z,25.25
2023-05-04T23:41:53.304Z,25.25
2023-05-04T23:44:41.885Z,25.25
2023-05-04T23:47:31.839Z,25.19
2023-05-04T23:50:20.472Z,25.21
2023-05-04T23:53:09.065Z,25.20
2023-05-04T23:56:03.399Z,25.19
2023-05-04T23:58:52.753Z,25.21
